Time;durP1;ratioP1;P1;durP2;ratioP2;P2;SDS_P1;SDS_P2;PMS_P1;PMS_P2;Temp;Humidity;BMP_temperature;BMP_pressure;BME280_temperature;BME280_humidity;BME280_pressure;Samples;Min_cycle;Max_cycle;Signal;HPM_P1;HPM_P2
2022/05/25 00:00:25;;;;;;;10.45;3.95;;;18.30;95.20;;;;;;5100142;28;20031;-66
2022/05/25 00:03:32;;;;;;;10.02;3.40;;;18.30;95.40;;;;;;5106064;28;20054;-68
2022/05/25 00:06:38;;;;;;;6.10;3.00;;;18.30;95.50;;;;;;5099599;28;20027;-66
2022/05/25 00:09:44;;;;;;;5.82;2.65;;;18.20;95.40;;;;;;5103819;28;20469;-67
2022/05/25 00:12:50;;;;;;;10.45;4.00;;;18.20;95.30;;;;;;5106004;28;20031;-65
2022/05/25 00:15:56;;;;;;;4.75;3.95;;;18.20;95.30;;;;;;5099917;28;20031;-67
2022/05/25 00:21:35;;;;;;;4.82;3.53;;;18.20;95.20;;;;;;5086092;28;20081;-67
2022/05/25 00:24:02;;;;;;;4.47;3.55;;;18.20;95.20;;;;;;5103033;28;20020;-67
2022/05/25 00:26:31;;;;;;;4.47;3.90;;;18.20;95.20;;;;;;5098487;28;20023;-65
2022/05/25 00:28:57;;;;;;;5.72;4.13;;;18.20;95.20;;;;;;5099869;28;20024;-69
2022/05/25 00:31:24;;;;;;;8.70;4.15;;;18.20;95.20;;;;;;5106838;28;20063;-65
2022/05/25 00:33:50;;;;;;;8.48;5.05;;;18.20;95.20;;;;;;5103195;28;20035;-65
2022/05/25 00:36:17;;;;;;;9.30;4.80;;;18.20;95.20;;;;;;5098922;28;20020;-65
2022/05/25 00:38:43;;;;;;;6.88;4.45;;;18.20;95.20;;;;;;5103980;28;20103;-65
2022/05/25 00:41:10;;;;;;;8.55;5.25;;;18.20;95.20;;;;;;5093792;28;20051;-65
2022/05/25 00:43:37;;;;;;;5.63;4.70;;;18.20;95.20;;;;;;5099029;28;20115;-64
2022/05/25 00:46:10;;;;;;;7.20;5.45;;;18.20;95.20;;;;;;5100104;28;20406;-64
2022/05/25 00:48:48;;;;;;;8.13;4.80;;;18.20;95.20;;;;;;5102201;28;20489;-66
2022/05/25 00:51:22;;;;;;;7.40;5.35;;;18.20;95.40;;;;;;5102568;28;20076;-65
2022/05/25 00:54:05;;;;;;;4.88;4.05;;;18.20;95.20;;;;;;5104266;28;20022;-65
2022/05/25 00:56:33;;;;;;;5.85;3.92;;;18.20;95.10;;;;;;5102865;28;20475;-65
2022/05/25 00:59:06;;;;;;;11.02;4.55;;;18.20;95.20;;;;;;5098516;28;20111;-66
2022/05/25 01:01:33;;;;;;;5.47;3.88;;;18.20;95.10;;;;;;5101092;28;20062;-65
2022/05/25 01:03:59;;;;;;;5.72;4.10;;;18.20;95.20;;;;;;5099883;28;20119;-67
2022/05/25 01:07:03;;;;;;;8.52;5.20;;;18.20;95.10;;;;;;5106169;28;20716;-68
2022/05/25 01:09:48;;;;;;;9.40;4.63;;;18.20;95.20;;;;;;5099410;28;20356;-67
2022/05/25 01:12:30;;;;;;;;;;;18.20;95.20;;;;;;5107060;28;20028;-66
2022/05/25 01:15:15;;;;;;;7.28;3.40;;;18.20;95.20;;;;;;5104938;28;19914;-65
2022/05/25 01:18:06;;;;;;;15.18;4.07;;;18.20;95.20;;;;;;5103857;28;20069;-68
2022/05/25 01:20:47;;;;;;;10.77;3.17;;;18.20;95.20;;;;;;5100684;28;20035;-65
2022/05/25 01:23:35;;;;;;;8.63;2.95;;;18.20;95.20;;;;;;5097974;28;20020;-68
2022/05/25 01:26:35;;;;;;;5.07;3.17;;;18.20;95.10;;;;;;5101154;28;20042;-65
2022/05/25 01:29:36;;;;;;;9.05;3.38;;;18.20;95.10;;;;;;5106058;28;20024;-65
2022/05/25 01:32:12;;;;;;;8.70;3.60;;;18.20;95.10;;;;;;5101696;28;20032;-66
2022/05/25 01:34:58;;;;;;;7.72;3.55;;;18.20;95.10;;;;;;5108053;28;20490;-68
2022/05/25 01:37:36;;;;;;;5.25;2.97;;;18.20;95.10;;;;;;5106459;28;20039;-68
2022/05/25 01:40:10;;;;;;;4.63;3.53;;;18.20;95.10;;;;;;5105089;28;20032;-69
2022/05/25 01:43:02;;;;;;;6.10;3.05;;;18.20;95.10;;;;;;5106017;28;20059;-67
2022/05/25 01:45:33;;;;;;;5.78;3.47;;;18.20;95.10;;;;;;5095906;28;20035;-69
2022/05/25 01:48:04;;;;;;;6.20;4.22;;;18.20;95.10;;;;;;5105311;28;20091;-65
2022/05/25 01:50:54;;;;;;;7.22;3.40;;;18.20;95.10;;;;;;5106465;28;20065;-66
2022/05/25 01:53:26;;;;;;;3.50;2.97;;;18.20;95.20;;;;;;5071761;28;20028;-67
2022/05/25 01:55:58;;;;;;;4.32;3.08;;;18.20;95.10;;;;;;5106131;28;20027;-67
2022/05/25 01:58:26;;;;;;;7.45;2.55;;;18.20;95.10;;;;;;5104828;28;20073;-68
2022/05/25 02:00:59;;;;;;;7.32;3.80;;;18.20;95.10;;;;;;5098569;28;20023;-67
2022/05/25 02:06:45;;;;;;;6.13;2.93;;;18.20;95.20;;;;;;5104204;28;20035;-66
2022/05/25 02:09:45;;;;;;;7.70;2.75;;;18.20;95.20;;;;;;5100898;28;20272;-66
2022/05/25 02:12:24;;;;;;;7.97;3.53;;;18.20;95.20;;;;;;5100864;28;20028;-66
2022/05/25 02:15:43;;;;;;;6.15;3.78;;;18.20;95.50;;;;;;5100878;28;20030;-69
2022/05/25 02:18:30;;;;;;;6.35;3.20;;;18.20;95.10;;;;;;5047755;28;20036;-66
2022/05/25 02:21:10;;;;;;;8.02;2.92;;;18.20;95.10;;;;;;5103701;28;20020;-65
2022/05/25 02:23:43;;;;;;;8.07;3.47;;;18.20;95.10;;;;;;5102027;28;20035;-67
2022/05/25 02:26:15;;;;;;;5.80;2.80;;;18.20;95.10;;;;;;5105135;28;20053;-67
2022/05/25 02:28:45;;;;;;;7.10;3.55;;;18.20;95.20;;;;;;5087385;28;20413;-67
2022/05/25 02:31:18;;;;;;;8.23;3.33;;;18.10;95.10;;;;;;5097621;28;20012;-67
2022/05/25 02:33:50;;;;;;;5.57;4.30;;;18.10;95.10;;;;;;5105184;28;20038;-67
2022/05/25 02:36:18;;;;;;;6.95;3.13;;;18.10;95.10;;;;;;5105495;28;20016;-68
2022/05/25 02:38:45;;;;;;;6.97;3.25;;;18.10;95.10;;;;;;5102740;28;20035;-68
2022/05/25 02:41:26;;;;;;;8.57;4.20;;;18.10;95.10;;;;;;5101808;28;20032;-68
2022/05/25 02:43:53;;;;;;;5.47;3.60;;;18.10;95.10;;;;;;5102836;28;20094;-67
2022/05/25 02:46:20;;;;;;;7.15;4.28;;;18.10;95.00;;;;;;5105226;28;20026;-67
2022/05/25 02:48:46;;;;;;;6.10;3.45;;;18.00;95.00;;;;;;5101478;28;20027;-68
2022/05/25 02:51:13;;;;;;;5.53;3.58;;;18.00;94.90;;;;;;5104391;28;20020;-68
2022/05/25 02:53:39;;;;;;;4.38;3.28;;;18.00;94.90;;;;;;5099209;28;20489;-66
2022/05/25 02:56:06;;;;;;;6.18;3.53;;;18.00;94.90;;;;;;5106285;28;20037;-67
2022/05/25 02:58:33;;;;;;;7.82;3.97;;;18.00;94.90;;;;;;5102936;28;20165;-68
2022/05/25 03:01:00;;;;;;;4.75;3.42;;;18.00;94.90;;;;;;5102034;28;20099;-68
2022/05/25 03:03:28;;;;;;;3.78;3.30;;;18.00;94.80;;;;;;5104687;28;20028;-67
2022/05/25 03:05:55;;;;;;;5.35;3.83;;;18.00;94.80;;;;;;5103175;28;20051;-68
2022/05/25 03:08:22;;;;;;;5.80;3.30;;;18.00;94.80;;;;;;5103652;28;20384;-67
2022/05/25 03:10:48;;;;;;;7.18;3.83;;;18.00;94.80;;;;;;5101746;28;20035;-66
2022/05/25 03:13:15;;;;;;;6.45;3.58;;;18.00;94.80;;;;;;5101433;28;20032;-66
2022/05/25 03:15:41;;;;;;;6.13;3.15;;;18.00;94.80;;;;;;5107176;28;20050;-69
2022/05/25 03:18:08;;;;;;;4.90;3.30;;;18.00;94.80;;;;;;5104290;28;20032;-68
2022/05/25 03:20:34;;;;;;;4.15;3.03;;;18.00;94.80;;;;;;5105002;28;20027;-68
2022/05/25 03:23:00;;;;;;;3.70;2.88;;;18.00;94.70;;;;;;5102655;28;20024;-67
2022/05/25 03:25:27;;;;;;;3.72;2.60;;;18.00;94.80;;;;;;5107875;28;21000;-68
2022/05/25 03:27:54;;;;;;;4.22;2.95;;;18.00;94.70;;;;;;5103984;28;20442;-67
2022/05/25 03:30:21;;;;;;;4.88;2.92;;;18.00;94.70;;;;;;5104359;28;20043;-68
2022/05/25 03:32:48;;;;;;;3.40;3.10;;;18.00;94.70;;;;;;5100828;28;20031;-68
2022/05/25 03:35:15;;;;;;;4.28;2.92;;;18.00;94.70;;;;;;5104305;28;20020;-67
2022/05/25 03:37:41;;;;;;;3.85;3.45;;;17.90;94.60;;;;;;5101644;28;20027;-67
2022/05/25 03:40:11;;;;;;;6.35;3.65;;;17.90;94.60;;;;;;5105383;28;20423;-67
2022/05/25 03:42:41;;;;;;;5.57;4.93;;;18.00;94.60;;;;;;5100865;28;20023;-68
2022/05/25 03:45:08;;;;;;;5.43;3.88;;;17.90;94.60;;;;;;5104737;28;20053;-67
2022/05/25 03:47:35;;;;;;;5.90;3.97;;;18.00;94.70;;;;;;5102632;28;20435;-67
2022/05/25 03:50:01;;;;;;;6.50;4.85;;;17.90;94.60;;;;;;5097531;28;20023;-68
2022/05/25 03:52:28;;;;;;;6.55;4.00;;;17.90;94.60;;;;;;5105915;28;20027;-67
2022/05/25 03:54:54;;;;;;;5.05;3.88;;;17.90;94.60;;;;;;5103527;28;20012;-69
2022/05/25 03:57:21;;;;;;;4.60;3.72;;;17.90;94.60;;;;;;5105028;28;20020;-67
2022/05/25 04:00:27;;;;;;;5.18;3.53;;;17.90;94.60;;;;;;5100060;28;20470;-69
2022/05/25 04:03:33;;;;;;;4.72;3.00;;;17.90;94.60;;;;;;5100024;28;20059;-67
2022/05/25 04:06:39;;;;;;;5.53;4.20;;;17.90;94.60;;;;;;5099272;28;20028;-68
2022/05/25 04:09:45;;;;;;;7.40;3.33;;;18.00;94.50;;;;;;5101718;28;20027;-69
2022/05/25 04:12:12;;;;;;;13.75;9.38;;;17.90;94.70;;;;;;5104248;28;20181;-69
2022/05/25 04:14:38;;;;;;;13.38;8.88;;;17.90;95.00;;;;;;5104676;28;20055;-69
2022/05/25 04:17:05;;;;;;;14.23;8.02;;;17.90;95.10;;;;;;5102690;28;20130;-66
2022/05/25 04:19:38;;;;;;;7.13;4.95;;;17.90;95.10;;;;;;5102251;28;20023;-68
2022/05/25 04:22:05;;;;;;;8.52;4.28;;;17.90;95.00;;;;;;5103345;28;20027;-69
2022/05/25 04:24:31;;;;;;;7.70;4.35;;;17.90;95.00;;;;;;5102419;28;20466;-66
2022/05/25 04:27:00;;;;;;;6.95;3.70;;;17.90;95.00;;;;;;5102484;28;20031;-67
2022/05/25 04:29:29;;;;;;;8.45;3.95;;;17.90;94.90;;;;;;5100099;28;20072;-65
2022/05/25 04:31:56;;;;;;;10.40;6.95;;;17.90;94.90;;;;;;5100382;28;20508;-67
2022/05/25 04:34:22;;;;;;;14.38;11.30;;;17.90;94.90;;;;;;5104295;28;20031;-67
2022/05/25 04:36:49;;;;;;;12.93;9.50;;;17.80;94.90;;;;;;5101327;28;20094;-67
2022/05/25 04:39:15;;;;;;;11.85;6.80;;;17.90;94.90;;;;;;5098619;28;20020;-68
2022/05/25 04:41:41;;;;;;;8.88;4.60;;;17.90;94.90;;;;;;5097546;28;20024;-68
2022/05/25 04:44:08;;;;;;;6.13;3.28;;;17.80;94.90;;;;;;5102422;28;20130;-69
2022/05/25 04:46:35;;;;;;;8.05;2.40;;;17.80;94.90;;;;;;5097730;28;20398;-69
2022/05/25 04:49:04;;;;;;;5.03;2.25;;;17.90;94.90;;;;;;5099224;28;20531;-68
2022/05/25 04:51:30;;;;;;;3.72;3.35;;;17.80;94.90;;;;;;5101071;28;20027;-67
2022/05/25 04:53:57;;;;;;;3.55;2.33;;;17.80;94.80;;;;;;5101646;28;20051;-68
2022/05/25 04:59:08;;;;;;;;;;;17.80;94.80;;;;;;5105478;28;20042;-68
2022/05/25 05:01:35;;;;;;;6.60;3.00;;;17.80;95.10;;;;;;5105069;28;19916;-67
2022/05/25 05:04:01;;;;;;;7.93;3.53;;;17.80;94.80;;;;;;5107634;28;20016;-68
2022/05/25 05:06:28;;;;;;;8.02;4.55;;;17.80;94.80;;;;;;5107871;28;20018;-68
2022/05/25 05:08:54;;;;;;;8.52;3.97;;;17.80;94.80;;;;;;5106515;28;20076;-68
2022/05/25 05:11:21;;;;;;;7.55;3.70;;;17.80;94.80;;;;;;5104435;28;20020;-65
2022/05/25 05:13:47;;;;;;;6.60;2.95;;;17.80;94.80;;;;;;5108554;28;20040;-65
2022/05/25 05:16:16;;;;;;;6.47;3.03;;;17.80;94.80;;;;;;5099021;28;20028;-66
2022/05/25 05:18:44;;;;;;;7.53;3.38;;;17.80;94.80;;;;;;5105008;28;20019;-66
2022/05/25 05:21:11;;;;;;;5.70;2.60;;;17.80;94.70;;;;;;5107215;28;20388;-66
2022/05/25 05:23:39;;;;;;;6.90;3.00;;;17.80;94.70;;;;;;5107267;28;20011;-66
2022/05/25 05:26:06;;;;;;;4.25;2.50;;;17.80;94.70;;;;;;5101707;28;20024;-66
2022/05/25 05:28:35;;;;;;;4.03;2.63;;;17.80;94.60;;;;;;5105077;28;20137;-66
2022/05/25 05:31:02;;;;;;;5.93;2.40;;;17.80;94.60;;;;;;5103725;28;20024;-65
2022/05/25 05:33:29;;;;;;;1.90;1.63;;;17.80;94.50;;;;;;5101347;28;20063;-66
2022/05/25 05:36:09;;;;;;;8.90;3.00;;;17.80;94.50;;;;;;5105070;28;20024;-66
2022/05/25 05:38:44;;;;;;;2.83;1.83;;;17.70;94.40;;;;;;5110621;28;20615;-66
2022/05/25 05:41:12;;;;;;;6.30;2.15;;;17.70;94.30;;;;;;5105796;28;20992;-66
2022/05/25 05:43:39;;;;;;;2.85;1.95;;;17.80;94.30;;;;;;5104268;28;20032;-66
2022/05/25 05:46:07;;;;;;;4.90;1.70;;;17.70;94.30;;;;;;5103534;28;20037;-67
2022/05/25 05:48:35;;;;;;;3.17;1.27;;;17.70;94.20;;;;;;5105056;28;20020;-66
2022/05/25 05:51:04;;;;;;;2.42;1.27;;;17.70;94.20;;;;;;5102715;28;20091;-67
2022/05/25 05:53:31;;;;;;;3.25;1.52;;;17.70;94.20;;;;;;5097961;28;20031;-66
2022/05/25 05:55:59;;;;;;;3.83;2.15;;;17.70;94.10;;;;;;5106500;28;20103;-66
2022/05/25 05:58:25;;;;;;;4.75;1.73;;;17.70;94.10;;;;;;5087676;28;20066;-66
2022/05/25 06:00:52;;;;;;;3.78;1.85;;;17.70;94.10;;;;;;5103390;28;20017;-67
2022/05/25 06:03:19;;;;;;;2.67;1.80;;;17.70;94.00;;;;;;5100207;28;20020;-66
2022/05/25 06:05:45;;;;;;;2.70;2.10;;;17.70;94.00;;;;;;5104438;28;20046;-66
2022/05/25 06:08:15;;;;;;;2.58;2.35;;;17.70;94.00;;;;;;5099166;28;20052;-66
2022/05/25 06:10:43;;;;;;;3.45;2.53;;;17.70;94.00;;;;;;5102833;28;20035;-66
2022/05/25 06:13:10;;;;;;;6.43;2.40;;;17.70;94.00;;;;;;5105818;28;20233;-67
2022/05/25 06:21:08;;;;;;;7.53;2.95;;;17.70;94.10;;;;;;5095650;28;20498;-67
2022/05/25 06:23:34;;;;;;;6.15;3.35;;;17.70;94.30;;;;;;5108018;28;20012;-68
2022/05/25 06:26:01;;;;;;;4.78;3.47;;;17.70;94.00;;;;;;5098334;28;20032;-66
2022/05/25 06:28:27;;;;;;;10.38;3.20;;;17.70;94.10;;;;;;5101175;28;20032;-67
2022/05/25 06:30:54;;;;;;;9.85;3.30;;;17.70;94.20;;;;;;5086252;28;20035;-66
2022/05/25 06:33:20;;;;;;;4.63;3.45;;;17.70;94.60;;;;;;5108449;28;20024;-67
2022/05/25 06:35:47;;;;;;;8.43;2.80;;;17.70;94.30;;;;;;5097374;28;20027;-66
2022/05/25 06:38:14;;;;;;;5.35;3.88;;;17.80;94.40;;;;;;5103817;28;20096;-66
2022/05/25 06:40:40;;;;;;;5.15;3.08;;;17.70;94.40;;;;;;5103176;28;20024;-66
2022/05/25 06:43:07;;;;;;;5.05;3.50;;;17.80;94.80;;;;;;5100733;28;20020;-68
2022/05/25 06:45:33;;;;;;;5.03;3.33;;;17.80;94.50;;;;;;5105394;28;20444;-67
2022/05/25 06:48:02;;;;;;;6.15;4.15;;;17.80;94.60;;;;;;5104625;28;20020;-66
2022/05/25 06:50:29;;;;;;;7.20;4.00;;;17.80;94.60;;;;;;5104679;28;20027;-67
2022/05/25 06:52:56;;;;;;;7.47;3.83;;;17.80;94.70;;;;;;5103419;28;20144;-67
2022/05/25 06:55:22;;;;;;;9.30;4.03;;;17.80;94.70;;;;;;5104617;28;20030;-66
2022/05/25 06:57:49;;;;;;;7.13;3.83;;;17.80;94.70;;;;;;5105189;28;20130;-66
2022/05/25 07:00:15;;;;;;;7.70;3.85;;;17.80;94.70;;;;;;5100309;28;20016;-67
2022/05/25 07:02:42;;;;;;;5.95;4.15;;;17.80;94.70;;;;;;5105874;28;20059;-66
2022/05/25 07:05:09;;;;;;;7.40;5.13;;;17.80;94.80;;;;;;5103949;28;20398;-66
2022/05/25 07:07:35;;;;;;;12.95;4.88;;;17.90;94.80;;;;;;5102308;28;20012;-67
2022/05/25 07:10:03;;;;;;;8.68;4.88;;;17.90;94.80;;;;;;5103435;28;20478;-68
2022/05/25 07:12:31;;;;;;;15.02;4.85;;;17.90;94.80;;;;;;5096157;28;20035;-66
2022/05/25 07:14:58;;;;;;;6.93;4.30;;;17.90;94.80;;;;;;5105748;28;20040;-66
2022/05/25 07:17:24;;;;;;;9.77;4.80;;;17.90;94.70;;;;;;5102078;28;20027;-67
2022/05/25 07:19:51;;;;;;;10.57;4.40;;;17.90;94.70;;;;;;5105731;28;20028;-66
2022/05/25 07:22:17;;;;;;;8.52;4.85;;;17.90;95.00;;;;;;5097122;28;20027;-67
2022/05/25 07:24:44;;;;;;;5.47;3.95;;;17.90;94.70;;;;;;5087156;28;20110;-67
2022/05/25 07:27:10;;;;;;;9.30;4.80;;;17.90;94.70;;;;;;5105549;28;20028;-66
2022/05/25 07:29:37;;;;;;;13.13;6.45;;;17.90;94.60;;;;;;5101065;28;20391;-67
2022/05/25 07:32:06;;;;;;;8.88;4.95;;;18.00;94.70;;;;;;5102588;28;20169;-67
2022/05/25 07:34:40;;;;;;;9.65;5.47;;;17.90;94.80;;;;;;5101841;28;20110;-67
2022/05/25 07:37:15;;;;;;;9.50;6.20;;;18.00;94.90;;;;;;5106935;28;20019;-67
2022/05/25 07:39:49;;;;;;;9.75;5.80;;;18.00;95.00;;;;;;5101767;28;20553;-67
2022/05/25 07:42:18;;;;;;;16.63;8.00;;;18.00;95.00;;;;;;5104358;28;20073;-67
2022/05/25 07:44:49;;;;;;;13.30;6.93;;;18.00;95.00;;;;;;5095236;28;20064;-67
2022/05/25 07:47:15;;;;;;;11.88;6.45;;;18.00;95.00;;;;;;5100049;28;20056;-67
2022/05/25 07:49:42;;;;;;;10.55;6.55;;;18.00;95.00;;;;;;5099582;28;20419;-69
2022/05/25 07:52:09;;;;;;;12.80;6.15;;;18.00;94.90;;;;;;5101777;28;20080;-66
2022/05/25 07:54:36;;;;;;;9.07;6.35;;;18.00;94.90;;;;;;5106688;28;20016;-66
2022/05/25 07:57:03;;;;;;;9.80;6.75;;;18.00;94.80;;;;;;5102032;28;20011;-66
2022/05/25 07:59:29;;;;;;;9.43;6.38;;;18.00;94.80;;;;;;5104002;28;20031;-67
2022/05/25 08:07:36;;;;;;;11.25;6.63;;;18.00;94.70;;;;;;5102178;28;20073;-67
2022/05/25 08:10:11;;;;;;;12.85;8.27;;;18.00;94.60;;;;;;5103446;28;20028;-66
2022/05/25 08:12:39;;;;;;;12.55;7.25;;;18.10;94.60;;;;;;5104100;28;20050;-66
2022/05/25 08:15:07;;;;;;;12.18;6.25;;;18.10;94.70;;;;;;5098160;28;20081;-65
2022/05/25 08:17:34;;;;;;;12.05;7.80;;;18.10;94.60;;;;;;5097340;28;20049;-65
2022/05/25 08:20:01;;;;;;;16.55;8.05;;;18.10;94.60;;;;;;5102260;28;20023;-66
2022/05/25 08:22:27;;;;;;;15.07;7.57;;;18.10;94.60;;;;;;5094663;28;20046;-66
2022/05/25 08:24:54;;;;;;;11.52;7.03;;;18.20;94.70;;;;;;5101998;28;20111;-65
2022/05/25 08:27:20;;;;;;;11.45;7.32;;;18.20;94.70;;;;;;5082044;28;20023;-66
2022/05/25 08:29:47;;;;;;;11.93;7.63;;;18.20;94.70;;;;;;5100282;28;20039;-66
2022/05/25 08:32:14;;;;;;;10.35;6.88;;;18.20;94.70;;;;;;5103012;28;20114;-65
2022/05/25 08:34:41;;;;;;;14.52;8.02;;;18.20;94.70;;;;;;5105692;28;20015;-67
2022/05/25 08:37:08;;;;;;;12.13;6.88;;;18.20;94.70;;;;;;5105465;28;20020;-68
2022/05/25 08:39:35;;;;;;;12.82;6.18;;;18.30;94.70;;;;;;5102032;28;20058;-66
2022/05/25 08:42:05;;;;;;;7.40;5.70;;;18.30;94.70;;;;;;5106051;28;20019;-67
2022/05/25 08:44:33;;;;;;;8.52;4.88;;;18.30;94.60;;;;;;5099113;28;20048;-68
2022/05/25 08:47:03;;;;;;;7.07;3.85;;;18.30;94.60;;;;;;5101431;28;20023;-66
2022/05/25 08:49:33;;;;;;;11.73;4.90;;;18.40;94.60;;;;;;5103228;28;20042;-66
2022/05/25 08:52:07;;;;;;;8.82;4.47;;;18.40;94.60;;;;;;5083500;28;20050;-66
2022/05/25 08:54:36;;;;;;;12.90;4.82;;;18.40;94.60;;;;;;5103731;28;20031;-68
2022/05/25 08:57:20;;;;;;;8.88;3.80;;;18.40;94.60;;;;;;5098149;28;20034;-67
2022/05/25 09:00:10;;;;;;;10.38;4.68;;;18.50;94.60;;;;;;5102409;28;20089;-67
2022/05/25 09:02:51;;;;;;;5.68;3.60;;;18.50;94.60;;;;;;5091424;28;20029;-68
2022/05/25 09:05:42;;;;;;;8.27;3.50;;;18.60;94.60;;;;;;5081481;28;20393;-67
2022/05/25 09:08:20;;;;;;;7.70;3.60;;;18.60;94.50;;;;;;5102603;28;20069;-67
2022/05/25 09:10:53;;;;;;;7.85;3.13;;;18.60;94.50;;;;;;5102773;28;20015;-68
2022/05/25 09:13:32;;;;;;;9.60;4.25;;;18.60;94.50;;;;;;5103514;28;20106;-66
2022/05/25 09:16:18;;;;;;;7.35;3.53;;;18.60;94.40;;;;;;5099676;28;20148;-68
2022/05/25 09:18:55;;;;;;;6.60;2.83;;;18.70;94.40;;;;;;5100585;28;20387;-67
2022/05/25 09:21:26;;;;;;;7.88;3.17;;;18.70;94.30;;;;;;5104878;28;20082;-67
2022/05/25 09:23:57;;;;;;;5.95;2.80;;;18.70;94.20;;;;;;5099998;28;20020;-69
2022/05/25 09:26:25;;;;;;;9.48;3.17;;;18.70;94.10;;;;;;5095501;28;20023;-67
2022/05/25 09:28:58;;;;;;;6.55;2.60;;;18.70;94.10;;;;;;5103843;28;20030;-68
2022/05/25 09:31:32;;;;;;;11.43;3.55;;;18.70;94.10;;;;;;5081014;28;20366;-67
2022/05/25 09:34:06;;;;;;;10.10;2.90;;;18.80;94.10;;;;;;5103522;28;20018;-67
2022/05/25 09:36:50;;;;;;;13.35;3.22;;;18.80;94.00;;;;;;5098590;28;20051;-67
2022/05/25 09:39:34;;;;;;;10.05;3.60;;;18.80;94.00;;;;;;5100467;28;20500;-68
2022/05/25 09:42:04;;;;;;;10.90;3.70;;;18.90;94.00;;;;;;5102454;28;20038;-67
2022/05/25 09:44:30;;;;;;;9.30;2.67;;;18.90;93.90;;;;;;5102495;28;20123;-70
2022/05/25 09:47:01;;;;;;;17.02;4.15;;;18.90;93.90;;;;;;5099303;28;20107;-69
2022/05/25 09:49:48;;;;;;;8.77;2.70;;;19.00;93.80;;;;;;5109216;28;20047;-66
2022/05/25 09:52:39;;;;;;;9.35;2.35;;;19.00;93.70;;;;;;5100573;28;20034;-68
2022/05/25 09:55:33;;;;;;;4.80;3.10;;;19.00;93.60;;;;;;5106890;28;20032;-67
2022/05/25 09:58:11;;;;;;;4.43;2.13;;;19.00;93.50;;;;;;5102371;28;20099;-66
2022/05/25 10:01:06;;;;;;;7.72;2.80;;;19.00;93.50;;;;;;5105687;28;20015;-66
2022/05/25 10:03:40;;;;;;;6.55;1.92;;;19.00;93.40;;;;;;5101518;28;20031;-66
2022/05/25 10:06:25;;;;;;;5.70;2.13;;;19.10;93.30;;;;;;5104108;28;20066;-66
2022/05/25 10:09:11;;;;;;;9.48;3.53;;;19.10;93.20;;;;;;5105019;28;20084;-68
2022/05/25 10:11:48;;;;;;;13.20;3.88;;;19.10;93.10;;;;;;5103020;28;20036;-67
2022/05/25 10:14:35;;;;;;;11.63;3.83;;;19.10;93.10;;;;;;5104809;28;20429;-66
2022/05/25 10:17:14;;;;;;;12.15;3.15;;;19.00;93.10;;;;;;5103657;28;20375;-67
2022/05/25 10:19:51;;;;;;;10.90;3.50;;;19.10;93.20;;;;;;5106719;28;20019;-68
2022/05/25 10:22:34;;;;;;;8.95;3.03;;;19.10;93.20;;;;;;5105999;28;20038;-67
2022/05/25 10:25:19;;;;;;;13.85;3.97;;;19.10;93.20;;;;;;5105065;28;20102;-67
2022/05/25 10:27:46;;;;;;;12.73;3.27;;;19.10;93.30;;;;;;5103578;28;20448;-67
2022/05/25 10:39:16;;;;;;;10.38;2.22;;;19.10;93.10;;;;;;5100621;28;20120;-67
2022/05/25 10:41:45;;;;;;;17.65;3.40;;;19.10;93.00;;;;;;5100227;28;20024;-67
2022/05/25 10:44:23;;;;;;;11.43;2.67;;;19.20;93.10;;;;;;5086848;28;20506;-68
2022/05/25 10:46:53;;;;;;;12.18;3.80;;;19.20;93.20;;;;;;5102437;28;20395;-68
2022/05/25 10:49:43;;;;;;;7.05;2.38;;;19.20;93.20;;;;;;5102630;28;20020;-68
2022/05/25 10:52:34;;;;;;;10.55;2.75;;;19.30;93.20;;;;;;5101205;28;20067;-67
2022/05/25 10:55:00;;;;;;;5.85;2.70;;;19.30;93.10;;;;;;5105995;28;20049;-68
2022/05/25 10:57:39;;;;;;;6.90;2.00;;;19.40;92.90;;;;;;5100877;28;20028;-67
2022/05/25 11:00:16;;;;;;;4.93;1.85;;;19.40;92.70;;;;;;5103541;28;20022;-68
2022/05/25 11:02:43;;;;;;;6.80;2.25;;;19.40;92.50;;;;;;5103205;28;20667;-68
2022/05/25 11:05:34;;;;;;;7.43;2.28;;;19.50;92.30;;;;;;5103550;28;20396;-68
2022/05/25 11:08:39;;;;;;;7.20;2.38;;;19.60;92.10;;;;;;5102948;28;20488;-67
2022/05/25 11:11:30;;;;;;;9.93;3.00;;;19.70;91.90;;;;;;5102195;28;20078;-68
2022/05/25 11:14:08;;;;;;;8.68;2.78;;;19.70;91.30;;;;;;5101646;28;20304;-67
2022/05/25 11:16:57;;;;;;;8.65;2.40;;;19.80;91.00;;;;;;5104651;28;20019;-69
2022/05/25 11:19:29;;;;;;;9.60;2.40;;;19.90;90.70;;;;;;5103150;28;20014;-67
2022/05/25 11:21:59;;;;;;;7.47;2.42;;;19.90;90.40;;;;;;5081807;28;20425;-69
2022/05/25 11:24:45;;;;;;;11.75;2.33;;;19.90;90.20;;;;;;5103208;28;20023;-68
2022/05/25 11:27:54;;;;;;;10.35;2.97;;;20.00;90.10;;;;;;5078598;28;20612;-68
2022/05/25 11:30:58;;;;;;;8.27;2.20;;;20.00;90.00;;;;;;5096465;28;20019;-69
2022/05/25 11:33:50;;;;;;;10.60;2.55;;;20.10;89.40;;;;;;5101623;28;20031;-69
2022/05/25 11:36:17;;;;;;;9.00;2.38;;;20.10;88.60;;;;;;5102553;28;20016;-67
2022/05/25 11:38:49;;;;;;;11.65;2.75;;;20.20;88.10;;;;;;5099419;28;20016;-68
2022/05/25 11:41:32;;;;;;;8.00;2.88;;;20.20;87.50;;;;;;5102981;28;20016;-67
2022/05/25 11:44:20;;;;;;;12.13;2.78;;;20.20;87.10;;;;;;5101798;28;20050;-68
2022/05/25 11:46:48;;;;;;;11.18;2.45;;;20.20;87.00;;;;;;5084157;28;20108;-68
2022/05/25 11:49:32;;;;;;;11.25;2.30;;;20.10;86.60;;;;;;5101078;28;20016;-68
2022/05/25 11:52:17;;;;;;;7.38;1.95;;;20.10;86.10;;;;;;5104425;28;20024;-68
2022/05/25 11:54:55;;;;;;;12.25;2.45;;;20.10;86.00;;;;;;5098018;28;20038;-68
2022/05/25 11:57:35;;;;;;;14.50;2.03;;;20.00;85.80;;;;;;5100511;28;20070;-69
2022/05/25 12:00:17;;;;;;;8.52;2.80;;;20.10;85.80;;;;;;5102053;28;20076;-68
2022/05/25 12:03:17;;;;;;;8.85;2.28;;;20.10;85.70;;;;;;5101356;28;20060;-68
2022/05/25 12:06:20;;;;;;;11.30;1.95;;;20.10;85.40;;;;;;5101962;28;20024;-67
2022/05/25 12:08:55;;;;;;;11.13;2.05;;;20.10;84.70;;;;;;5087343;28;20489;-69
2022/05/25 12:11:36;;;;;;;13.85;2.97;;;20.10;84.10;;;;;;5101942;28;20467;-69
2022/05/25 12:14:24;;;;;;;6.97;1.88;;;20.20;84.20;;;;;;5103328;28;20026;-67
2022/05/25 12:16:56;;;;;;;7.55;2.03;;;20.20;84.00;;;;;;5098964;28;20494;-68
2022/05/25 12:19:30;;;;;;;6.15;1.92;;;20.10;83.40;;;;;;5101410;28;20106;-69
2022/05/25 12:22:13;;;;;;;9.23;2.00;;;20.10;83.20;;;;;;5103813;28;20023;-68
2022/05/25 12:24:44;;;;;;;8.00;2.10;;;20.10;83.20;;;;;;5101946;28;20020;-68
2022/05/25 12:27:21;;;;;;;8.05;1.65;;;20.10;83.20;;;;;;5104232;28;20383;-69
2022/05/25 12:29:54;;;;;;;7.95;2.83;;;20.10;83.10;;;;;;5099270;28;20459;-69
2022/05/25 12:32:22;;;;;;;8.52;1.92;;;20.10;83.10;;;;;;5106015;28;20078;-68
2022/05/25 12:34:51;;;;;;;9.63;2.53;;;20.00;83.00;;;;;;5100241;28;20016;-69
2022/05/25 12:37:27;;;;;;;12.50;2.40;;;20.00;83.00;;;;;;5098350;28;20032;-69
2022/05/25 12:40:05;;;;;;;7.13;2.55;;;20.00;83.00;;;;;;5101427;28;20036;-68
2022/05/25 12:42:35;;;;;;;5.15;2.75;;;20.10;82.80;;;;;;5097635;28;20543;-68
2022/05/25 12:48:32;;;;;;;14.73;2.33;;;20.00;82.90;;;;;;5104784;28;20112;-67
2022/05/25 12:51:06;;;;;;;9.10;3.20;;;20.00;83.10;;;;;;5066834;28;20040;-68
2022/05/25 12:53:39;;;;;;;10.40;2.58;;;20.00;83.10;;;;;;5104216;28;20062;-70
2022/05/25 12:56:24;;;;;;;11.10;2.45;;;20.00;83.00;;;;;;5099582;28;20036;-70
2022/05/25 12:58:54;;;;;;;10.23;2.35;;;20.00;82.90;;;;;;5100503;28;20007;-69
2022/05/25 13:01:23;;;;;;;7.90;2.55;;;20.00;82.90;;;;;;5096762;28;20016;-68
2022/05/25 13:03:50;;;;;;;9.07;2.33;;;20.00;83.00;;;;;;5101321;28;20475;-67
2022/05/25 13:06:21;;;;;;;10.88;3.20;;;20.00;83.00;;;;;;5100269;28;20111;-70
2022/05/25 13:08:48;;;;;;;7.05;2.08;;;20.00;83.00;;;;;;5079688;28;20027;-69
2022/05/25 13:11:38;;;;;;;6.70;1.70;;;20.00;82.70;;;;;;5102810;28;20072;-70
2022/05/25 13:14:16;;;;;;;5.72;1.65;;;20.00;82.60;;;;;;5103855;28;20067;-68
2022/05/25 13:16:46;;;;;;;6.80;1.98;;;20.00;82.60;;;;;;5097447;28;20360;-69
2022/05/25 13:19:37;;;;;;;12.55;3.65;;;20.00;82.50;;;;;;5099080;28;20462;-67
2022/05/25 13:22:05;;;;;;;7.78;2.20;;;20.00;82.80;;;;;;5104127;28;20081;-70
2022/05/25 13:24:53;;;;;;;7.68;2.20;;;20.00;83.20;;;;;;5106039;28;20496;-69
2022/05/25 13:27:43;;;;;;;7.05;2.00;;;20.00;83.20;;;;;;5110046;28;20470;-69
2022/05/25 13:30:28;;;;;;;7.43;2.10;;;20.00;82.90;;;;;;5083593;28;20028;-67
2022/05/25 13:33:13;;;;;;;10.07;3.40;;;20.00;82.50;;;;;;5106341;28;20094;-66
2022/05/25 13:35:47;;;;;;;5.30;2.55;;;20.00;82.40;;;;;;5107567;28;20034;-67
2022/05/25 13:38:30;;;;;;;9.07;2.75;;;20.00;82.50;;;;;;5101525;28;20036;-69
2022/05/25 13:41:07;;;;;;;12.27;2.67;;;20.00;82.50;;;;;;5102930;28;20023;-68
2022/05/25 13:43:52;;;;;;;10.05;2.83;;;20.00;82.80;;;;;;5104703;28;20898;-67
2022/05/25 13:46:44;;;;;;;12.85;3.05;;;20.00;83.20;;;;;;5081055;28;20016;-69
2022/05/25 13:49:23;;;;;;;13.88;3.10;;;20.00;83.70;;;;;;5108210;28;20066;-68
2022/05/25 13:51:52;;;;;;;9.40;4.05;;;20.00;84.20;;;;;;5105466;28;20490;-70
2022/05/25 13:54:25;;;;;;;10.18;2.95;;;19.90;84.40;;;;;;5105908;28;20020;-69